الصفحة الرئيسية
METAR-TAF:

METAR-TAF

مطار :

Yap, مايكرونيزيا

دائرة عرض: 09-29N, خط طول: 138-05E, ارتفاع: 28 متر

مراقبة الطقس الحالي

تاريخ ووقت الإصدار 33 دقيقة قبل الساعة 23:50UTC
ريح 10 عقدة من الجنوب الغربي
درجة الحرارة 30°درجة مئوية
الرطوبة 75%
ضغط 1009 hPa
الرؤية: 19.3 كم
غيوم قليلة على ارتفاع 1800 قدم
غيوم مفككة على ارتفاع 30000 قدم

METAR: PTYA 172350Z 22010KT 12SM FEW018 BKN300 30/25 A2981 RMK SLP095 8/101 T03030254 10303 20279 53015

زمن: 10:23 (00:23 UTC)

توقعات

تاريخ ووقت الإصدار 52 دقيقة قبل الساعة 23:31UTC
التوقعات صالحة من18 الساعة 00 UTC إلى 18 الساعة 24 UTC
ريح 11 عقدة من الجنوب الغربي
الرؤية: 10 كم
غيوم متفرقة على ارتفاع 1600 قدم
غيوم متفرقة على ارتفاع 13000 قدم
زخات في الجوار

TAF: PTYA 172331Z 1800/1824 23011KT P6SM VCSH SCT016 SCT130

أرصاد الطقس والتوقعات من أكثر من 4000 مطار (تقارير الطقس للمطار METAR والتنبؤ بالطقس بالمطارTAF).

المحطات المتاحة هي النقط الصفراء والحمراء على الخريطة.

حرك المؤشر فوق النقطة لمعرفة اسم المحطة.

ثم انقر لمعرفة أرصاد وتوقعات الطقس.

لتغيير الخارطة: اضغط على الأزرار الخضراء مع رمز الصليب الأسود للتكبير. على الزر الأخضر مع شرطة للتصغير، أو على الأسهم الخضراء للخرائط المجاورة.


METAR-TAF: